N517RG MMZH-MMAN
Flight info
| Callsign | N517RG |
|---|---|
| Flight time | N/A |
| Altitude | 29000 |
| Route | VILTO2B VILTO UJ17 MLM UJ40 SLP UJ31 SLW SLW1D |
| Aircraft | PC12/L-SDFGRWY/S |
Departure
| Time | 2026-04-25 17:52 |
|---|---|
| Airport | Ixtapa-Zihuatanejo International Airport (MMZH) |
Arrival
| Time | N/A |
|---|---|
| Airport | Del Norte International Airport (MMAN) |
| Time | Latitude | Longitude | Altitude | Speed | Heading |
|---|---|---|---|---|---|
| 2026-04-25 17:28 | 17.60543 | -101.46256 | 24 ft | 0 kts | 266° |
| 2026-04-25 17:47 | 17.60521 | -101.46273 | 24 ft | 9 kts | 197° |
| 2026-04-25 17:48 | 17.60374 | -101.46285 | 24 ft | 11 kts | 176° |
| 2026-04-25 17:48 | 17.60319 | -101.46221 | 24 ft | 13 kts | 124° |
| 2026-04-25 17:48 | 17.60269 | -101.46131 | 25 ft | 15 kts | 118° |
| 2026-04-25 17:49 | 17.60206 | -101.46034 | 25 ft | 17 kts | 124° |
| 2026-04-25 17:49 | 17.60157 | -101.45918 | 25 ft | 19 kts | 94° |
| 2026-04-25 17:49 | 17.60154 | -101.45779 | 27 ft | 20 kts | 92° |
| 2026-04-25 17:49 | 17.60150 | -101.45624 | 28 ft | 23 kts | 91° |
| 2026-04-25 17:50 | 17.60145 | -101.45449 | 27 ft | 24 kts | 92° |
| 2026-04-25 17:50 | 17.60140 | -101.45274 | 29 ft | 22 kts | 90° |
| 2026-04-25 17:50 | 17.60139 | -101.45155 | 30 ft | 14 kts | 90° |
| 2026-04-25 17:50 | 17.60140 | -101.45040 | 30 ft | 17 kts | 88° |
| 2026-04-25 17:51 | 17.60175 | -101.44916 | 30 ft | 16 kts | 104° |
| 2026-04-25 17:51 | 17.60131 | -101.44947 | 30 ft | 12 kts | 275° |
| 2026-04-25 17:51 | 17.60134 | -101.45078 | 30 ft | 35 kts | 271° |
| 2026-04-25 17:51 | 17.60142 | -101.45537 | 31 ft | 87 kts | 270° |
| 2026-04-25 17:52 | 17.60167 | -101.46250 | 227 ft | 109 kts | 273° |
| 2026-04-25 17:52 | 17.60202 | -101.46808 | 451 ft | 123 kts | 274° |
| 2026-04-25 17:52 | 17.60258 | -101.48102 | 984 ft | 146 kts | 270° |
| 2026-04-25 17:52 | 17.60290 | -101.49230 | 1417 ft | 157 kts | 271° |
| 2026-04-25 17:53 | 17.60301 | -101.50381 | 1975 ft | 159 kts | 270° |
| 2026-04-25 17:53 | 17.60317 | -101.51548 | 2551 ft | 162 kts | 270° |
| 2026-04-25 17:53 | 17.60334 | -101.52753 | 3066 ft | 167 kts | 271° |
| 2026-04-25 17:53 | 17.60632 | -101.53921 | 3561 ft | 170 kts | 304° |
| 2026-04-25 17:54 | 17.61541 | -101.54700 | 4089 ft | 172 kts | 338° |
| 2026-04-25 17:54 | 17.62656 | -101.55139 | 4677 ft | 171 kts | 341° |
| 2026-04-25 17:54 | 17.63780 | -101.55571 | 5199 ft | 172 kts | 341° |
| 2026-04-25 17:54 | 17.64905 | -101.56012 | 5736 ft | 173 kts | 340° |
| 2026-04-25 17:55 | 17.66030 | -101.56458 | 6280 ft | 173 kts | 340° |
| 2026-04-25 17:55 | 17.67158 | -101.56905 | 6777 ft | 174 kts | 340° |
| 2026-04-25 17:55 | 17.68285 | -101.57351 | 7248 ft | 177 kts | 340° |
| 2026-04-25 17:55 | 17.69440 | -101.57809 | 7734 ft | 178 kts | 340° |
| 2026-04-25 17:56 | 17.70607 | -101.58272 | 8219 ft | 180 kts | 339° |
| 2026-04-25 17:56 | 17.71786 | -101.58740 | 8695 ft | 182 kts | 339° |
| 2026-04-25 17:56 | 17.72979 | -101.59213 | 9172 ft | 184 kts | 339° |
| 2026-04-25 17:56 | 17.74184 | -101.59691 | 9643 ft | 186 kts | 339° |
| 2026-04-25 17:57 | 17.75398 | -101.60173 | 10083 ft | 188 kts | 339° |
| 2026-04-25 17:57 | 17.76627 | -101.60660 | 10502 ft | 190 kts | 339° |
| 2026-04-25 17:57 | 17.77868 | -101.61153 | 10928 ft | 191 kts | 340° |
| 2026-04-25 17:57 | 17.78279 | -101.61270 | 11040 ft | 192 kts | 352° |
| 2026-04-25 17:58 | 17.80403 | -101.60591 | 11731 ft | 194 kts | 27° |
| 2026-04-25 17:58 | 17.81627 | -101.59988 | 12177 ft | 195 kts | 26° |
| 2026-04-25 17:58 | 17.82871 | -101.59404 | 12629 ft | 197 kts | 26° |
| 2026-04-25 17:58 | 17.84128 | -101.58824 | 13072 ft | 198 kts | 26° |
| 2026-04-25 17:59 | 17.85395 | -101.58238 | 13525 ft | 200 kts | 26° |
| 2026-04-25 17:59 | 17.86670 | -101.57647 | 13937 ft | 201 kts | 26° |
| 2026-04-25 17:59 | 17.87952 | -101.57053 | 14341 ft | 202 kts | 26° |
| 2026-04-25 17:59 | 17.89238 | -101.56456 | 14729 ft | 202 kts | 25° |
| 2026-04-25 18:00 | 17.90524 | -101.55861 | 15131 ft | 203 kts | 26° |
| 2026-04-25 18:00 | 17.91816 | -101.55263 | 15525 ft | 203 kts | 26° |
| 2026-04-25 18:00 | 17.93113 | -101.54661 | 15916 ft | 204 kts | 26° |
| 2026-04-25 18:00 | 17.94415 | -101.54058 | 16287 ft | 204 kts | 25° |
| 2026-04-25 18:01 | 17.95718 | -101.53453 | 16671 ft | 205 kts | 25° |
| 2026-04-25 18:01 | 17.97026 | -101.52847 | 17030 ft | 206 kts | 25° |
| 2026-04-25 18:01 | 17.98338 | -101.52238 | 17395 ft | 206 kts | 25° |
| 2026-04-25 18:01 | 17.99655 | -101.51628 | 17752 ft | 207 kts | 25° |
| 2026-04-25 18:02 | 18.00976 | -101.51015 | 18125 ft | 208 kts | 25° |
| 2026-04-25 18:02 | 18.02303 | -101.50400 | 18455 ft | 209 kts | 25° |
| 2026-04-25 18:02 | 18.03636 | -101.49781 | 18770 ft | 210 kts | 25° |
| 2026-04-25 18:02 | 18.04977 | -101.49159 | 19073 ft | 211 kts | 24° |
| 2026-04-25 18:03 | 18.06322 | -101.48534 | 19350 ft | 212 kts | 24° |
| 2026-04-25 18:03 | 18.07673 | -101.47907 | 19611 ft | 213 kts | 24° |
| 2026-04-25 18:03 | 18.09031 | -101.47276 | 19889 ft | 214 kts | 24° |
| 2026-04-25 18:03 | 18.10394 | -101.46643 | 20164 ft | 215 kts | 24° |
| 2026-04-25 18:04 | 18.11763 | -101.46007 | 20435 ft | 215 kts | 24° |
| 2026-04-25 18:04 | 18.13138 | -101.45368 | 20695 ft | 216 kts | 23° |
| 2026-04-25 18:04 | 18.14518 | -101.44727 | 20970 ft | 217 kts | 23° |
| 2026-04-25 18:04 | 18.15436 | -101.44301 | 21132 ft | 218 kts | 23° |
| 2026-04-25 18:05 | 18.16827 | -101.43654 | 21407 ft | 219 kts | 22° |
| 2026-04-25 18:05 | 18.18696 | -101.42785 | 21753 ft | 220 kts | 22° |
| 2026-04-25 18:05 | 18.20102 | -101.42132 | 22012 ft | 221 kts | 22° |
| 2026-04-25 18:05 | 18.21514 | -101.41475 | 22271 ft | 223 kts | 22° |
| 2026-04-25 18:06 | 18.22932 | -101.40815 | 22569 ft | 224 kts | 22° |
| 2026-04-25 18:06 | 18.24361 | -101.40150 | 22844 ft | 225 kts | 22° |
| 2026-04-25 18:06 | 18.25797 | -101.39482 | 23113 ft | 226 kts | 22° |
| 2026-04-25 18:06 | 18.27240 | -101.38811 | 23381 ft | 227 kts | 22° |
| 2026-04-25 18:07 | 18.28691 | -101.38135 | 23606 ft | 229 kts | 22° |
| 2026-04-25 18:07 | 18.30150 | -101.37457 | 23811 ft | 230 kts | 22° |
| 2026-04-25 18:07 | 18.31615 | -101.36775 | 24027 ft | 231 kts | 22° |
| 2026-04-25 18:07 | 18.33084 | -101.36091 | 24235 ft | 232 kts | 22° |
| 2026-04-25 18:08 | 18.34561 | -101.35402 | 24446 ft | 233 kts | 22° |
| 2026-04-25 18:08 | 18.36024 | -101.34721 | 24664 ft | 233 kts | 22° |
| 2026-04-25 18:08 | 18.37030 | -101.34252 | 24816 ft | 234 kts | 22° |
| 2026-04-25 18:08 | 18.39009 | -101.33330 | 25092 ft | 236 kts | 22° |
| 2026-04-25 18:09 | 18.40512 | -101.32629 | 25305 ft | 237 kts | 21° |
| 2026-04-25 18:09 | 18.42021 | -101.31926 | 25514 ft | 238 kts | 21° |
| 2026-04-25 18:09 | 18.43073 | -101.31557 | 25634 ft | 236 kts | 10° |
| 2026-04-25 18:09 | 18.44145 | -101.31341 | 25745 ft | 237 kts | 7° |
| 2026-04-25 18:10 | 18.46321 | -101.30944 | 26032 ft | 238 kts | 8° |
| 2026-04-25 18:10 | 18.47951 | -101.30626 | 26240 ft | 239 kts | 8° |
| 2026-04-25 18:10 | 18.49588 | -101.30301 | 26451 ft | 240 kts | 8° |
| 2026-04-25 18:10 | 18.51231 | -101.29979 | 26656 ft | 241 kts | 8° |
| 2026-04-25 18:11 | 18.52882 | -101.29656 | 26842 ft | 242 kts | 8° |
| 2026-04-25 18:11 | 18.54539 | -101.29332 | 27026 ft | 243 kts | 8° |
| 2026-04-25 18:11 | 18.56203 | -101.29006 | 27206 ft | 243 kts | 8° |
| 2026-04-25 18:11 | 18.57868 | -101.28680 | 27384 ft | 244 kts | 8° |
| 2026-04-25 18:12 | 18.59543 | -101.28352 | 27558 ft | 245 kts | 8° |
| 2026-04-25 18:12 | 18.61224 | -101.28022 | 27731 ft | 246 kts | 7° |
| 2026-04-25 18:12 | 18.62909 | -101.27692 | 27897 ft | 247 kts | 7° |
| 2026-04-25 18:12 | 18.64600 | -101.27361 | 28060 ft | 247 kts | 7° |
| 2026-04-25 18:13 | 18.66295 | -101.27028 | 28225 ft | 248 kts | 7° |
| 2026-04-25 18:13 | 18.67997 | -101.26694 | 28394 ft | 249 kts | 7° |
| 2026-04-25 18:13 | 18.69703 | -101.26360 | 28568 ft | 250 kts | 7° |
| 2026-04-25 18:14 | 18.73130 | -101.25687 | 28880 ft | 251 kts | 7° |
| 2026-04-25 18:14 | 18.74876 | -101.25346 | 28878 ft | 258 kts | 7° |
| 2026-04-25 18:14 | 18.76661 | -101.24995 | 28884 ft | 263 kts | 7° |
| 2026-04-25 18:14 | 18.78473 | -101.24638 | 28884 ft | 266 kts | 7° |
| 2026-04-25 18:15 | 18.80289 | -101.24280 | 28884 ft | 266 kts | 7° |
| 2026-04-25 18:15 | 18.82104 | -101.23924 | 28888 ft | 265 kts | 7° |
| 2026-04-25 18:15 | 18.83917 | -101.23568 | 28885 ft | 264 kts | 7° |
| 2026-04-25 18:15 | 18.85703 | -101.23217 | 28888 ft | 265 kts | 7° |
| 2026-04-25 18:16 | 18.87516 | -101.22861 | 28886 ft | 265 kts | 7° |
| 2026-04-25 18:16 | 18.89357 | -101.22499 | 28895 ft | 266 kts | 7° |